sensor_id;sensor_type;location;lat;lon;timestamp;P1;durP1;ratioP1;P2;durP2;ratioP2
77111;SDS011;66064;50.226;14.344;2023-06-19T00:02:18;15.25;;;10.77;;
77111;SDS011;66064;50.226;14.344;2023-06-19T00:04:44;13.38;;;10.15;;
77111;SDS011;66064;50.226;14.344;2023-06-19T00:07:10;14.77;;;10.57;;
77111;SDS011;66064;50.226;14.344;2023-06-19T00:09:36;14.55;;;11.32;;
77111;SDS011;66064;50.226;14.344;2023-06-19T00:12:02;16.55;;;9.98;;
77111;SDS011;66064;50.226;14.344;2023-06-19T00:14:29;13.88;;;10.15;;
77111;SDS011;66064;50.226;14.344;2023-06-19T00:16:55;14.70;;;11.02;;
77111;SDS011;66064;50.226;14.344;2023-06-19T00:19:22;13.20;;;10.48;;
77111;SDS011;66064;50.226;14.344;2023-06-19T00:21:48;12.55;;;10.93;;
77111;SDS011;66064;50.226;14.344;2023-06-19T00:24:14;10.88;;;9.77;;
77111;SDS011;66064;50.226;14.344;2023-06-19T00:26:40;12.60;;;9.55;;
77111;SDS011;66064;50.226;14.344;2023-06-19T00:29:08;12.40;;;10.05;;
77111;SDS011;66064;50.226;14.344;2023-06-19T00:31:34;12.52;;;9.23;;
77111;SDS011;66064;50.226;14.344;2023-06-19T00:34:02;12.68;;;10.45;;
77111;SDS011;66064;50.226;14.344;2023-06-19T00:36:28;14.43;;;13.05;;
77111;SDS011;66064;50.226;14.344;2023-06-19T00:38:54;11.68;;;10.57;;
77111;SDS011;66064;50.226;14.344;2023-06-19T00:41:20;12.38;;;10.63;;
77111;SDS011;66064;50.226;14.344;2023-06-19T00:43:47;11.45;;;10.30;;
77111;SDS011;66064;50.226;14.344;2023-06-19T00:46:14;12.00;;;10.15;;
77111;SDS011;66064;50.226;14.344;2023-06-19T00:48:39;14.07;;;11.38;;
77111;SDS011;66064;50.226;14.344;2023-06-19T00:51:06;12.13;;;10.20;;
77111;SDS011;66064;50.226;14.344;2023-06-19T00:53:32;16.20;;;12.23;;
77111;SDS011;66064;50.226;14.344;2023-06-19T00:56:00;13.70;;;9.38;;
77111;SDS011;66064;50.226;14.344;2023-06-19T00:58:26;14.75;;;9.77;;
77111;SDS011;66064;50.226;14.344;2023-06-19T01:00:52;13.25;;;10.63;;
77111;SDS011;66064;50.226;14.344;2023-06-19T01:03:18;15.32;;;11.80;;
77111;SDS011;66064;50.226;14.344;2023-06-19T01:05:44;12.45;;;10.25;;
77111;SDS011;66064;50.226;14.344;2023-06-19T01:11:03;12.85;;;10.50;;
77111;SDS011;66064;50.226;14.344;2023-06-19T01:13:34;16.23;;;11.02;;
77111;SDS011;66064;50.226;14.344;2023-06-19T01:16:07;12.23;;;11.02;;
77111;SDS011;66064;50.226;14.344;2023-06-19T01:18:35;12.57;;;9.88;;
77111;SDS011;66064;50.226;14.344;2023-06-19T01:21:09;12.35;;;10.48;;
77111;SDS011;66064;50.226;14.344;2023-06-19T01:23:39;14.05;;;11.13;;
77111;SDS011;66064;50.226;14.344;2023-06-19T01:26:06;13.00;;;11.70;;
77111;SDS011;66064;50.226;14.344;2023-06-19T01:28:33;11.65;;;9.13;;
77111;SDS011;66064;50.226;14.344;2023-06-19T01:31:15;12.98;;;9.98;;
77111;SDS011;66064;50.226;14.344;2023-06-19T01:33:46;13.35;;;10.73;;
77111;SDS011;66064;50.226;14.344;2023-06-19T01:36:16;12.77;;;10.20;;
77111;SDS011;66064;50.226;14.344;2023-06-19T01:38:44;12.02;;;10.77;;
77111;SDS011;66064;50.226;14.344;2023-06-19T01:43:40;12.32;;;10.98;;
77111;SDS011;66064;50.226;14.344;2023-06-19T01:46:07;13.68;;;10.68;;
77111;SDS011;66064;50.226;14.344;2023-06-19T01:48:34;14.40;;;12.25;;
77111;SDS011;66064;50.226;14.344;2023-06-19T01:51:02;13.27;;;10.45;;
77111;SDS011;66064;50.226;14.344;2023-06-19T01:53:30;13.23;;;11.85;;
77111;SDS011;66064;50.226;14.344;2023-06-19T01:55:57;12.10;;;10.88;;
77111;SDS011;66064;50.226;14.344;2023-06-19T01:58:24;12.18;;;10.70;;
77111;SDS011;66064;50.226;14.344;2023-06-19T02:00:50;12.50;;;10.48;;
77111;SDS011;66064;50.226;14.344;2023-06-19T02:03:16;12.77;;;10.52;;
77111;SDS011;66064;50.226;14.344;2023-06-19T02:05:42;14.30;;;11.15;;
77111;SDS011;66064;50.226;14.344;2023-06-19T02:08:08;10.45;;;9.38;;
77111;SDS011;66064;50.226;14.344;2023-06-19T02:10:34;11.60;;;10.40;;
77111;SDS011;66064;50.226;14.344;2023-06-19T02:13:00;16.55;;;12.63;;
77111;SDS011;66064;50.226;14.344;2023-06-19T02:15:26;14.23;;;11.98;;
77111;SDS011;66064;50.226;14.344;2023-06-19T02:17:53;14.90;;;13.00;;
77111;SDS011;66064;50.226;14.344;2023-06-19T02:20:21;15.75;;;11.68;;
77111;SDS011;66064;50.226;14.344;2023-06-19T02:22:49;16.50;;;11.75;;
77111;SDS011;66064;50.226;14.344;2023-06-19T02:25:17;14.73;;;12.57;;
77111;SDS011;66064;50.226;14.344;2023-06-19T02:27:44;14.75;;;12.45;;
77111;SDS011;66064;50.226;14.344;2023-06-19T02:30:10;14.85;;;12.27;;
77111;SDS011;66064;50.226;14.344;2023-06-19T02:32:36;13.30;;;11.43;;
77111;SDS011;66064;50.226;14.344;2023-06-19T02:35:07;12.43;;;10.82;;
77111;SDS011;66064;50.226;14.344;2023-06-19T02:37:34;14.95;;;10.77;;
77111;SDS011;66064;50.226;14.344;2023-06-19T02:42:30;15.90;;;12.23;;
77111;SDS011;66064;50.226;14.344;2023-06-19T02:44:56;16.15;;;13.05;;
77111;SDS011;66064;50.226;14.344;2023-06-19T02:47:29;13.25;;;11.07;;
77111;SDS011;66064;50.226;14.344;2023-06-19T02:49:57;17.23;;;14.35;;
77111;SDS011;66064;50.226;14.344;2023-06-19T02:52:27;13.38;;;11.38;;
77111;SDS011;66064;50.226;14.344;2023-06-19T02:54:53;15.13;;;11.77;;
77111;SDS011;66064;50.226;14.344;2023-06-19T02:57:19;20.83;;;13.07;;
77111;SDS011;66064;50.226;14.344;2023-06-19T02:59:45;12.13;;;9.90;;
77111;SDS011;66064;50.226;14.344;2023-06-19T03:02:11;17.90;;;12.93;;
77111;SDS011;66064;50.226;14.344;2023-06-19T03:04:37;19.65;;;12.90;;
77111;SDS011;66064;50.226;14.344;2023-06-19T03:07:03;15.70;;;9.43;;
77111;SDS011;66064;50.226;14.344;2023-06-19T03:09:30;13.93;;;11.45;;
77111;SDS011;66064;50.226;14.344;2023-06-19T03:11:55;14.30;;;12.75;;
77111;SDS011;66064;50.226;14.344;2023-06-19T03:14:21;14.75;;;12.45;;
77111;SDS011;66064;50.226;14.344;2023-06-19T03:16:47;14.15;;;12.77;;
77111;SDS011;66064;50.226;14.344;2023-06-19T03:19:13;12.52;;;11.15;;
77111;SDS011;66064;50.226;14.344;2023-06-19T03:21:39;15.25;;;12.65;;
77111;SDS011;66064;50.226;14.344;2023-06-19T03:24:06;13.82;;;11.48;;
77111;SDS011;66064;50.226;14.344;2023-06-19T03:26:32;12.10;;;10.90;;
77111;SDS011;66064;50.226;14.344;2023-06-19T03:28:59;12.77;;;11.48;;
77111;SDS011;66064;50.226;14.344;2023-06-19T03:31:25;16.13;;;11.75;;
77111;SDS011;66064;50.226;14.344;2023-06-19T03:33:51;14.45;;;11.30;;
77111;SDS011;66064;50.226;14.344;2023-06-19T03:36:17;15.15;;;12.45;;
77111;SDS011;66064;50.226;14.344;2023-06-19T03:38:44;14.75;;;10.95;;
77111;SDS011;66064;50.226;14.344;2023-06-19T03:41:10;14.85;;;11.38;;
77111;SDS011;66064;50.226;14.344;2023-06-19T03:43:37;12.18;;;10.07;;
77111;SDS011;66064;50.226;14.344;2023-06-19T03:46:04;13.90;;;10.85;;
77111;SDS011;66064;50.226;14.344;2023-06-19T03:48:31;13.68;;;10.75;;
77111;SDS011;66064;50.226;14.344;2023-06-19T03:50:57;13.23;;;11.95;;
77111;SDS011;66064;50.226;14.344;2023-06-19T03:53:23;13.07;;;11.20;;
77111;SDS011;66064;50.226;14.344;2023-06-19T03:55:49;16.83;;;10.35;;
77111;SDS011;66064;50.226;14.344;2023-06-19T03:58:15;13.07;;;10.70;;
77111;SDS011;66064;50.226;14.344;2023-06-19T04:00:41;16.35;;;10.57;;
77111;SDS011;66064;50.226;14.344;2023-06-19T04:03:07;15.10;;;11.15;;
77111;SDS011;66064;50.226;14.344;2023-06-19T04:05:35;12.20;;;11.00;;
77111;SDS011;66064;50.226;14.344;2023-06-19T04:08:01;13.35;;;11.60;;
77111;SDS011;66064;50.226;14.344;2023-06-19T04:10:27;13.32;;;11.13;;
77111;SDS011;66064;50.226;14.344;2023-06-19T04:12:53;13.63;;;12.25;;
77111;SDS011;66064;50.226;14.344;2023-06-19T04:15:21;12.63;;;10.75;;
77111;SDS011;66064;50.226;14.344;2023-06-19T04:17:47;13.65;;;10.93;;
77111;SDS011;66064;50.226;14.344;2023-06-19T04:20:14;13.95;;;12.63;;
77111;SDS011;66064;50.226;14.344;2023-06-19T04:22:40;13.65;;;9.02;;
77111;SDS011;66064;50.226;14.344;2023-06-19T04:25:07;19.17;;;12.77;;
77111;SDS011;66064;50.226;14.344;2023-06-19T04:27:35;16.33;;;12.60;;
77111;SDS011;66064;50.226;14.344;2023-06-19T04:30:04;13.13;;;10.40;;
77111;SDS011;66064;50.226;14.344;2023-06-19T04:32:32;13.95;;;11.80;;
77111;SDS011;66064;50.226;14.344;2023-06-19T04:35:00;12.75;;;11.45;;
77111;SDS011;66064;50.226;14.344;2023-06-19T04:37:29;15.93;;;11.80;;
77111;SDS011;66064;50.226;14.344;2023-06-19T04:42:21;13.02;;;11.70;;
77111;SDS011;66064;50.226;14.344;2023-06-19T04:44:47;13.35;;;9.57;;
77111;SDS011;66064;50.226;14.344;2023-06-19T04:47:16;12.38;;;10.70;;
77111;SDS011;66064;50.226;14.344;2023-06-19T04:49:43;12.57;;;11.27;;
77111;SDS011;66064;50.226;14.344;2023-06-19T04:52:09;17.13;;;13.25;;
77111;SDS011;66064;50.226;14.344;2023-06-19T04:54:34;15.18;;;10.52;;
77111;SDS011;66064;50.226;14.344;2023-06-19T04:57:01;14.32;;;11.27;;
77111;SDS011;66064;50.226;14.344;2023-06-19T04:59:27;14.60;;;11.55;;
77111;SDS011;66064;50.226;14.344;2023-06-19T05:01:53;15.98;;;11.93;;
77111;SDS011;66064;50.226;14.344;2023-06-19T05:04:20;15.45;;;13.20;;
77111;SDS011;66064;50.226;14.344;2023-06-19T05:06:48;11.70;;;9.70;;
77111;SDS011;66064;50.226;14.344;2023-06-19T05:09:14;10.77;;;9.40;;
77111;SDS011;66064;50.226;14.344;2023-06-19T05:11:41;13.18;;;11.25;;
77111;SDS011;66064;50.226;14.344;2023-06-19T05:14:06;15.80;;;11.55;;
77111;SDS011;66064;50.226;14.344;2023-06-19T05:16:35;15.25;;;10.52;;
77111;SDS011;66064;50.226;14.344;2023-06-19T05:19:01;13.90;;;9.55;;
77111;SDS011;66064;50.226;14.344;2023-06-19T05:21:27;12.80;;;10.20;;
77111;SDS011;66064;50.226;14.344;2023-06-19T05:23:53;14.25;;;10.63;;
77111;SDS011;66064;50.226;14.344;2023-06-19T05:26:19;12.65;;;10.23;;
77111;SDS011;66064;50.226;14.344;2023-06-19T05:28:46;13.98;;;10.77;;
77111;SDS011;66064;50.226;14.344;2023-06-19T05:31:13;13.52;;;10.68;;
77111;SDS011;66064;50.226;14.344;2023-06-19T05:33:39;20.10;;;11.20;;
77111;SDS011;66064;50.226;14.344;2023-06-19T05:36:06;18.15;;;12.27;;
77111;SDS011;66064;50.226;14.344;2023-06-19T05:38:32;15.60;;;11.38;;
77111;SDS011;66064;50.226;14.344;2023-06-19T05:40:59;13.27;;;10.95;;
77111;SDS011;66064;50.226;14.344;2023-06-19T05:43:25;14.40;;;12.20;;
77111;SDS011;66064;50.226;14.344;2023-06-19T05:45:55;16.98;;;11.20;;
77111;SDS011;66064;50.226;14.344;2023-06-19T05:48:21;17.80;;;11.30;;
77111;SDS011;66064;50.226;14.344;2023-06-19T05:50:47;13.73;;;11.45;;
77111;SDS011;66064;50.226;14.344;2023-06-19T05:53:13;16.65;;;11.48;;
77111;SDS011;66064;50.226;14.344;2023-06-19T05:55:39;15.30;;;11.65;;
77111;SDS011;66064;50.226;14.344;2023-06-19T05:58:05;14.80;;;10.50;;
77111;SDS011;66064;50.226;14.344;2023-06-19T06:00:32;19.67;;;10.98;;
77111;SDS011;66064;50.226;14.344;2023-06-19T06:02:57;18.10;;;11.63;;
77111;SDS011;66064;50.226;14.344;2023-06-19T06:05:27;14.77;;;10.77;;
77111;SDS011;66064;50.226;14.344;2023-06-19T06:07:54;14.30;;;10.07;;
77111;SDS011;66064;50.226;14.344;2023-06-19T06:10:21;16.08;;;11.13;;
77111;SDS011;66064;50.226;14.344;2023-06-19T06:12:48;12.13;;;10.27;;
77111;SDS011;66064;50.226;14.344;2023-06-19T06:15:15;14.68;;;10.05;;
77111;SDS011;66064;50.226;14.344;2023-06-19T06:17:41;15.07;;;10.32;;
77111;SDS011;66064;50.226;14.344;2023-06-19T06:20:08;13.30;;;9.98;;
77111;SDS011;66064;50.226;14.344;2023-06-19T06:22:40;14.93;;;11.13;;
77111;SDS011;66064;50.226;14.344;2023-06-19T06:25:08;14.18;;;11.35;;
77111;SDS011;66064;50.226;14.344;2023-06-19T06:27:38;14.85;;;12.10;;
77111;SDS011;66064;50.226;14.344;2023-06-19T06:30:04;16.45;;;11.02;;
77111;SDS011;66064;50.226;14.344;2023-06-19T06:32:30;14.93;;;11.02;;
77111;SDS011;66064;50.226;14.344;2023-06-19T06:34:57;13.43;;;10.70;;
77111;SDS011;66064;50.226;14.344;2023-06-19T06:37:24;16.02;;;10.75;;
77111;SDS011;66064;50.226;14.344;2023-06-19T06:39:50;14.00;;;10.75;;
77111;SDS011;66064;50.226;14.344;2023-06-19T06:42:17;14.02;;;10.35;;
77111;SDS011;66064;50.226;14.344;2023-06-19T06:44:44;14.77;;;9.95;;
77111;SDS011;66064;50.226;14.344;2023-06-19T06:47:10;12.32;;;9.32;;
77111;SDS011;66064;50.226;14.344;2023-06-19T06:49:36;20.02;;;10.82;;
77111;SDS011;66064;50.226;14.344;2023-06-19T06:52:05;12.10;;;9.52;;
77111;SDS011;66064;50.226;14.344;2023-06-19T06:54:32;14.32;;;8.98;;
77111;SDS011;66064;50.226;14.344;2023-06-19T06:56:58;21.30;;;12.35;;
77111;SDS011;66064;50.226;14.344;2023-06-19T06:59:26;13.18;;;9.35;;
77111;SDS011;66064;50.226;14.344;2023-06-19T07:01:55;15.43;;;10.07;;
77111;SDS011;66064;50.226;14.344;2023-06-19T07:04:22;11.00;;;9.10;;
77111;SDS011;66064;50.226;14.344;2023-06-19T07:06:48;15.45;;;12.18;;
77111;SDS011;66064;50.226;14.344;2023-06-19T07:09:14;11.70;;;9.65;;
77111;SDS011;66064;50.226;14.344;2023-06-19T07:11:40;13.23;;;9.48;;
77111;SDS011;66064;50.226;14.344;2023-06-19T07:14:07;12.18;;;9.52;;
77111;SDS011;66064;50.226;14.344;2023-06-19T07:16:32;14.80;;;9.45;;
77111;SDS011;66064;50.226;14.344;2023-06-19T07:18:58;11.52;;;9.13;;
77111;SDS011;66064;50.226;14.344;2023-06-19T07:21:24;19.30;;;9.55;;
77111;SDS011;66064;50.226;14.344;2023-06-19T07:23:53;15.05;;;8.88;;
77111;SDS011;66064;50.226;14.344;2023-06-19T07:26:20;11.50;;;8.60;;
77111;SDS011;66064;50.226;14.344;2023-06-19T07:28:46;11.88;;;9.00;;
77111;SDS011;66064;50.226;14.344;2023-06-19T07:31:12;10.35;;;7.80;;
77111;SDS011;66064;50.226;14.344;2023-06-19T07:33:38;11.98;;;9.38;;
77111;SDS011;66064;50.226;14.344;2023-06-19T07:36:04;15.40;;;9.50;;
77111;SDS011;66064;50.226;14.344;2023-06-19T07:38:31;12.60;;;9.23;;
77111;SDS011;66064;50.226;14.344;2023-06-19T07:40:57;14.55;;;8.32;;
77111;SDS011;66064;50.226;14.344;2023-06-19T07:43:23;13.05;;;8.57;;
77111;SDS011;66064;50.226;14.344;2023-06-19T07:45:49;12.23;;;8.82;;
77111;SDS011;66064;50.226;14.344;2023-06-19T07:48:15;11.70;;;8.10;;
77111;SDS011;66064;50.226;14.344;2023-06-19T07:50:42;10.35;;;8.35;;
77111;SDS011;66064;50.226;14.344;2023-06-19T07:53:08;10.48;;;7.82;;
77111;SDS011;66064;50.226;14.344;2023-06-19T07:55:34;9.45;;;7.65;;
77111;SDS011;66064;50.226;14.344;2023-06-19T07:58:01;12.18;;;7.18;;
77111;SDS011;66064;50.226;14.344;2023-06-19T08:00:27;11.25;;;8.32;;
77111;SDS011;66064;50.226;14.344;2023-06-19T08:02:53;10.35;;;8.15;;
77111;SDS011;66064;50.226;14.344;2023-06-19T08:05:19;10.07;;;8.02;;
77111;SDS011;66064;50.226;14.344;2023-06-19T08:07:45;12.98;;;8.07;;
77111;SDS011;66064;50.226;14.344;2023-06-19T08:10:11;10.13;;;7.70;;
77111;SDS011;66064;50.226;14.344;2023-06-19T08:12:37;9.95;;;6.88;;
77111;SDS011;66064;50.226;14.344;2023-06-19T08:15:03;9.13;;;7.57;;
77111;SDS011;66064;50.226;14.344;2023-06-19T08:17:29;8.68;;;7.53;;
77111;SDS011;66064;50.226;14.344;2023-06-19T08:19:55;9.60;;;7.30;;
77111;SDS011;66064;50.226;14.344;2023-06-19T08:22:21;10.80;;;7.93;;
77111;SDS011;66064;50.226;14.344;2023-06-19T08:24:47;8.80;;;6.93;;
77111;SDS011;66064;50.226;14.344;2023-06-19T08:27:13;8.38;;;6.28;;
77111;SDS011;66064;50.226;14.344;2023-06-19T08:29:39;9.13;;;7.68;;
77111;SDS011;66064;50.226;14.344;2023-06-19T08:32:06;10.20;;;6.68;;
77111;SDS011;66064;50.226;14.344;2023-06-19T08:34:34;10.23;;;7.38;;
77111;SDS011;66064;50.226;14.344;2023-06-19T08:37:01;9.23;;;6.10;;
77111;SDS011;66064;50.226;14.344;2023-06-19T08:39:27;10.48;;;8.43;;
77111;SDS011;66064;50.226;14.344;2023-06-19T08:41:53;8.98;;;6.68;;
77111;SDS011;66064;50.226;14.344;2023-06-19T08:44:19;14.20;;;7.40;;
77111;SDS011;66064;50.226;14.344;2023-06-19T08:46:45;9.15;;;7.35;;
77111;SDS011;66064;50.226;14.344;2023-06-19T08:49:11;9.30;;;7.05;;
77111;SDS011;66064;50.226;14.344;2023-06-19T08:51:39;9.98;;;7.82;;
77111;SDS011;66064;50.226;14.344;2023-06-19T08:54:06;9.57;;;7.25;;
77111;SDS011;66064;50.226;14.344;2023-06-19T08:56:34;11.20;;;6.75;;
77111;SDS011;66064;50.226;14.344;2023-06-19T08:59:16;11.63;;;8.30;;
77111;SDS011;66064;50.226;14.344;2023-06-19T09:01:49;10.95;;;8.35;;
77111;SDS011;66064;50.226;14.344;2023-06-19T09:04:20;11.65;;;7.30;;
77111;SDS011;66064;50.226;14.344;2023-06-19T09:06:52;12.20;;;7.32;;
77111;SDS011;66064;50.226;14.344;2023-06-19T09:09:20;12.52;;;7.45;;
77111;SDS011;66064;50.226;14.344;2023-06-19T09:14:36;14.00;;;7.22;;
77111;SDS011;66064;50.226;14.344;2023-06-19T09:17:17;14.20;;;7.90;;
77111;SDS011;66064;50.226;14.344;2023-06-19T09:19:52;9.80;;;7.10;;
77111;SDS011;66064;50.226;14.344;2023-06-19T09:22:21;10.82;;;6.93;;
77111;SDS011;66064;50.226;14.344;2023-06-19T09:24:48;8.38;;;7.28;;
77111;SDS011;66064;50.226;14.344;2023-06-19T09:27:16;11.38;;;6.85;;
77111;SDS011;66064;50.226;14.344;2023-06-19T09:29:47;8.38;;;6.65;;
77111;SDS011;66064;50.226;14.344;2023-06-19T09:32:15;8.88;;;7.25;;
77111;SDS011;66064;50.226;14.344;2023-06-19T09:34:41;8.63;;;6.13;;
77111;SDS011;66064;50.226;14.344;2023-06-19T09:37:08;11.48;;;6.82;;
77111;SDS011;66064;50.226;14.344;2023-06-19T09:39:36;7.53;;;6.20;;
77111;SDS011;66064;50.226;14.344;2023-06-19T09:44:31;7.40;;;5.47;;
77111;SDS011;66064;50.226;14.344;2023-06-19T09:47:30;11.40;;;6.70;;
77111;SDS011;66064;50.226;14.344;2023-06-19T09:49:57;8.82;;;6.07;;
77111;SDS011;66064;50.226;14.344;2023-06-19T09:52:24;7.90;;;6.50;;
77111;SDS011;66064;50.226;14.344;2023-06-19T09:54:51;7.57;;;5.55;;
77111;SDS011;66064;50.226;14.344;2023-06-19T09:59:45;6.63;;;4.90;;
77111;SDS011;66064;50.226;14.344;2023-06-19T10:02:15;6.47;;;4.75;;
77111;SDS011;66064;50.226;14.344;2023-06-19T10:04:46;7.72;;;4.97;;
77111;SDS011;66064;50.226;14.344;2023-06-19T10:07:16;6.90;;;4.97;;
77111;SDS011;66064;50.226;14.344;2023-06-19T10:12:44;8.15;;;5.20;;
77111;SDS011;66064;50.226;14.344;2023-06-19T10:15:12;6.63;;;4.70;;
77111;SDS011;66064;50.226;14.344;2023-06-19T10:17:51;9.82;;;4.82;;
77111;SDS011;66064;50.226;14.344;2023-06-19T10:20:34;6.22;;;4.50;;
77111;SDS011;66064;50.226;14.344;2023-06-19T10:25:41;6.30;;;5.00;;
77111;SDS011;66064;50.226;14.344;2023-06-19T10:28:30;8.00;;;5.38;;
77111;SDS011;66064;50.226;14.344;2023-06-19T10:30:58;6.18;;;4.32;;
77111;SDS011;66064;50.226;14.344;2023-06-19T10:33:29;8.10;;;4.85;;
77111;SDS011;66064;50.226;14.344;2023-06-19T10:35:58;6.93;;;4.55;;
77111;SDS011;66064;50.226;14.344;2023-06-19T10:38:28;7.13;;;4.97;;
77111;SDS011;66064;50.226;14.344;2023-06-19T10:40:54;7.18;;;4.35;;
77111;SDS011;66064;50.226;14.344;2023-06-19T10:43:22;7.15;;;4.63;;
77111;SDS011;66064;50.226;14.344;2023-06-19T10:45:50;6.88;;;4.40;;
77111;SDS011;66064;50.226;14.344;2023-06-19T10:48:21;5.30;;;3.78;;
77111;SDS011;66064;50.226;14.344;2023-06-19T10:50:49;6.03;;;4.07;;
77111;SDS011;66064;50.226;14.344;2023-06-19T10:53:28;7.43;;;4.32;;
77111;SDS011;66064;50.226;14.344;2023-06-19T10:55:59;6.43;;;4.65;;
77111;SDS011;66064;50.226;14.344;2023-06-19T10:58:27;7.10;;;4.57;;
77111;SDS011;66064;50.226;14.344;2023-06-19T11:00:54;7.80;;;4.80;;
77111;SDS011;66064;50.226;14.344;2023-06-19T11:03:20;5.97;;;4.15;;
77111;SDS011;66064;50.226;14.344;2023-06-19T11:05:47;7.60;;;4.47;;
77111;SDS011;66064;50.226;14.344;2023-06-19T11:10:44;5.88;;;3.88;;
77111;SDS011;66064;50.226;14.344;2023-06-19T11:13:17;6.85;;;4.53;;
77111;SDS011;66064;50.226;14.344;2023-06-19T11:18:11;7.05;;;4.45;;
77111;SDS011;66064;50.226;14.344;2023-06-19T11:20:50;5.55;;;4.22;;
77111;SDS011;66064;50.226;14.344;2023-06-19T11:23:24;6.72;;;4.57;;
77111;SDS011;66064;50.226;14.344;2023-06-19T11:26:01;4.47;;;3.53;;
77111;SDS011;66064;50.226;14.344;2023-06-19T11:28:29;8.05;;;4.90;;
77111;SDS011;66064;50.226;14.344;2023-06-19T11:30:58;6.55;;;4.70;;
77111;SDS011;66064;50.226;14.344;2023-06-19T11:33:27;6.00;;;4.40;;
77111;SDS011;66064;50.226;14.344;2023-06-19T11:35:54;5.30;;;4.30;;
77111;SDS011;66064;50.226;14.344;2023-06-19T11:38:21;5.35;;;4.55;;
77111;SDS011;66064;50.226;14.344;2023-06-19T11:40:50;5.70;;;4.22;;
77111;SDS011;66064;50.226;14.344;2023-06-19T11:46:04;6.10;;;4.63;;
77111;SDS011;66064;50.226;14.344;2023-06-19T11:50:58;6.10;;;4.22;;
77111;SDS011;66064;50.226;14.344;2023-06-19T11:53:24;7.57;;;4.80;;
77111;SDS011;66064;50.226;14.344;2023-06-19T11:55:50;6.35;;;4.15;;
77111;SDS011;66064;50.226;14.344;2023-06-19T11:58:17;6.82;;;4.82;;
77111;SDS011;66064;50.226;14.344;2023-06-19T12:00:46;6.28;;;4.68;;
77111;SDS011;66064;50.226;14.344;2023-06-19T12:03:13;6.20;;;4.97;;
77111;SDS011;66064;50.226;14.344;2023-06-19T12:05:40;6.57;;;4.88;;
77111;SDS011;66064;50.226;14.344;2023-06-19T12:08:06;9.15;;;5.13;;
77111;SDS011;66064;50.226;14.344;2023-06-19T12:10:32;6.75;;;4.78;;
77111;SDS011;66064;50.226;14.344;2023-06-19T12:13:00;6.55;;;5.07;;
77111;SDS011;66064;50.226;14.344;2023-06-19T12:15:26;6.43;;;5.28;;
77111;SDS011;66064;50.226;14.344;2023-06-19T12:17:52;7.53;;;4.72;;
77111;SDS011;66064;50.226;14.344;2023-06-19T12:20:18;7.35;;;5.10;;
77111;SDS011;66064;50.226;14.344;2023-06-19T12:22:44;8.30;;;5.65;;
77111;SDS011;66064;50.226;14.344;2023-06-19T12:25:10;6.25;;;4.35;;
77111;SDS011;66064;50.226;14.344;2023-06-19T12:27:37;6.57;;;4.57;;
77111;SDS011;66064;50.226;14.344;2023-06-19T12:30:04;6.55;;;5.15;;
77111;SDS011;66064;50.226;14.344;2023-06-19T12:32:31;6.57;;;4.95;;
77111;SDS011;66064;50.226;14.344;2023-06-19T12:34:57;7.82;;;4.80;;
77111;SDS011;66064;50.226;14.344;2023-06-19T12:37:23;6.78;;;4.70;;
77111;SDS011;66064;50.226;14.344;2023-06-19T12:39:49;6.55;;;4.95;;
77111;SDS011;66064;50.226;14.344;2023-06-19T12:42:16;6.50;;;4.93;;
77111;SDS011;66064;50.226;14.344;2023-06-19T12:44:42;7.50;;;4.60;;
77111;SDS011;66064;50.226;14.344;2023-06-19T12:47:12;6.93;;;4.80;;
77111;SDS011;66064;50.226;14.344;2023-06-19T12:49:38;5.50;;;4.60;;
77111;SDS011;66064;50.226;14.344;2023-06-19T12:52:05;7.25;;;4.97;;
77111;SDS011;66064;50.226;14.344;2023-06-19T12:54:31;8.02;;;5.50;;
77111;SDS011;66064;50.226;14.344;2023-06-19T12:56:57;7.50;;;5.28;;
77111;SDS011;66064;50.226;14.344;2023-06-19T12:59:23;6.95;;;4.90;;
77111;SDS011;66064;50.226;14.344;2023-06-19T13:01:50;8.50;;;5.18;;
77111;SDS011;66064;50.226;14.344;2023-06-19T13:04:16;6.50;;;4.53;;
77111;SDS011;66064;50.226;14.344;2023-06-19T13:06:42;7.05;;;4.68;;
77111;SDS011;66064;50.226;14.344;2023-06-19T13:09:08;7.15;;;4.45;;
77111;SDS011;66064;50.226;14.344;2023-06-19T13:11:34;7.70;;;5.68;;
77111;SDS011;66064;50.226;14.344;2023-06-19T13:14:01;7.97;;;5.30;;
77111;SDS011;66064;50.226;14.344;2023-06-19T13:16:27;8.60;;;5.50;;
77111;SDS011;66064;50.226;14.344;2023-06-19T13:18:53;7.15;;;4.78;;
77111;SDS011;66064;50.226;14.344;2023-06-19T13:21:19;7.20;;;5.20;;
77111;SDS011;66064;50.226;14.344;2023-06-19T13:23:45;8.57;;;5.93;;
77111;SDS011;66064;50.226;14.344;2023-06-19T13:26:12;9.88;;;4.80;;
77111;SDS011;66064;50.226;14.344;2023-06-19T13:28:37;6.57;;;5.40;;
77111;SDS011;66064;50.226;14.344;2023-06-19T13:31:03;7.55;;;5.43;;
77111;SDS011;66064;50.226;14.344;2023-06-19T13:33:29;6.13;;;5.00;;
77111;SDS011;66064;50.226;14.344;2023-06-19T13:35:55;8.55;;;5.38;;
77111;SDS011;66064;50.226;14.344;2023-06-19T13:38:21;10.10;;;6.18;;
77111;SDS011;66064;50.226;14.344;2023-06-19T13:40:47;9.13;;;5.35;;
77111;SDS011;66064;50.226;14.344;2023-06-19T13:43:13;7.60;;;5.90;;
77111;SDS011;66064;50.226;14.344;2023-06-19T13:45:40;8.25;;;5.93;;
77111;SDS011;66064;50.226;14.344;2023-06-19T13:48:06;6.93;;;5.18;;
77111;SDS011;66064;50.226;14.344;2023-06-19T13:50:33;6.80;;;5.43;;
77111;SDS011;66064;50.226;14.344;2023-06-19T13:53:00;7.95;;;6.00;;
77111;SDS011;66064;50.226;14.344;2023-06-19T13:57:53;7.22;;;5.50;;
77111;SDS011;66064;50.226;14.344;2023-06-19T14:00:19;8.95;;;6.25;;
77111;SDS011;66064;50.226;14.344;2023-06-19T14:02:46;6.82;;;5.88;;
77111;SDS011;66064;50.226;14.344;2023-06-19T14:05:12;8.25;;;5.35;;
77111;SDS011;66064;50.226;14.344;2023-06-19T14:07:40;7.55;;;5.88;;
77111;SDS011;66064;50.226;14.344;2023-06-19T14:10:10;7.65;;;5.88;;
77111;SDS011;66064;50.226;14.344;2023-06-19T14:12:36;8.48;;;6.10;;
77111;SDS011;66064;50.226;14.344;2023-06-19T14:15:02;6.45;;;5.45;;
77111;SDS011;66064;50.226;14.344;2023-06-19T14:17:28;8.88;;;6.25;;
77111;SDS011;66064;50.226;14.344;2023-06-19T14:19:54;7.38;;;5.63;;
77111;SDS011;66064;50.226;14.344;2023-06-19T14:22:22;6.72;;;5.47;;
77111;SDS011;66064;50.226;14.344;2023-06-19T14:24:48;10.07;;;6.13;;
77111;SDS011;66064;50.226;14.344;2023-06-19T14:27:15;8.23;;;5.47;;
77111;SDS011;66064;50.226;14.344;2023-06-19T14:29:41;5.38;;;4.65;;
77111;SDS011;66064;50.226;14.344;2023-06-19T14:32:07;8.05;;;6.13;;
77111;SDS011;66064;50.226;14.344;2023-06-19T14:34:33;7.65;;;5.70;;
77111;SDS011;66064;50.226;14.344;2023-06-19T14:36:58;6.63;;;5.88;;
77111;SDS011;66064;50.226;14.344;2023-06-19T14:39:24;9.32;;;6.38;;
77111;SDS011;66064;50.226;14.344;2023-06-19T14:41:50;8.35;;;6.05;;
77111;SDS011;66064;50.226;14.344;2023-06-19T14:44:16;6.72;;;5.05;;
77111;SDS011;66064;50.226;14.344;2023-06-19T14:46:42;9.32;;;5.57;;
77111;SDS011;66064;50.226;14.344;2023-06-19T14:49:10;7.05;;;5.20;;
77111;SDS011;66064;50.226;14.344;2023-06-19T14:51:39;7.20;;;5.18;;
77111;SDS011;66064;50.226;14.344;2023-06-19T14:54:05;7.03;;;5.80;;
77111;SDS011;66064;50.226;14.344;2023-06-19T14:56:31;7.13;;;5.47;;
77111;SDS011;66064;50.226;14.344;2023-06-19T14:58:57;6.88;;;4.70;;